createdAt,value
2023-03-21T00:01:53.483Z,98.00
2023-03-21T00:04:22.276Z,98.20
2023-03-21T00:06:50.697Z,98.00
2023-03-21T00:09:19.301Z,98.10
2023-03-21T00:11:48.288Z,98.10
2023-03-21T00:14:18.860Z,98.20
2023-03-21T00:16:50.805Z,98.20
2023-03-21T00:19:21.938Z,98.30
2023-03-21T00:22:08.788Z,98.30
2023-03-21T00:24:38.857Z,98.20
2023-03-21T00:27:43.025Z,98.30
2023-03-21T00:29:56.973Z,98.30
2023-03-21T00:32:25.417Z,98.20
2023-03-21T00:35:09.693Z,98.20
2023-03-21T00:37:43.954Z,98.30
2023-03-21T00:40:25.452Z,98.20
2023-03-21T00:42:56.193Z,98.30
2023-03-21T00:45:24.767Z,98.20
2023-03-21T00:47:53.253Z,98.20
2023-03-21T00:50:23.052Z,98.10
2023-03-21T00:52:51.486Z,98.20
2023-03-21T00:55:21.657Z,98.20
2023-03-21T00:57:56.193Z,98.30
2023-03-21T01:00:29.906Z,98.30
2023-03-21T01:03:04.369Z,98.60
2023-03-21T01:05:58.213Z,98.30
2023-03-21T01:08:35.156Z,98.30
2023-03-21T01:11:14.205Z,98.30
2023-03-21T01:13:53.043Z,98.30
2023-03-21T01:16:25.440Z,98.20
2023-03-21T01:18:55.009Z,98.60
2023-03-21T01:21:24.958Z,98.30
2023-03-21T01:23:53.807Z,98.30
2023-03-21T01:26:22.408Z,98.30
2023-03-21T01:28:50.875Z,98.20
2023-03-21T01:31:19.840Z,98.40
2023-03-21T01:33:48.984Z,98.30
2023-03-21T01:36:23.408Z,98.40
2023-03-21T01:38:55.700Z,98.40
2023-03-21T01:41:43.280Z,98.40
2023-03-21T01:44:20.768Z,98.40
2023-03-21T01:47:11.163Z,98.40
2023-03-21T01:50:02.666Z,98.40
2023-03-21T01:52:54.297Z,98.40
2023-03-21T01:55:31.028Z,98.30
2023-03-21T01:58:09.927Z,98.40
2023-03-21T02:01:02.849Z,98.40
2023-03-21T02:03:51.203Z,98.40
2023-03-21T02:06:52.247Z,98.50
2023-03-21T02:09:47.093Z,98.40
2023-03-21T02:12:20.540Z,98.50
2023-03-21T02:14:51.204Z,98.50
2023-03-21T02:17:39.267Z,98.50
2023-03-21T02:20:56.210Z,98.60
2023-03-21T02:24:12.892Z,98.60
2023-03-21T02:27:07.668Z,98.60
2023-03-21T02:30:51.623Z,98.60
2023-03-21T02:34:06.542Z,98.60
2023-03-21T02:37:01.198Z,98.60
2023-03-21T02:39:37.769Z,98.60
2023-03-21T02:42:15.881Z,98.50
2023-03-21T02:44:48.469Z,98.60
2023-03-21T02:47:25.934Z,98.60
2023-03-21T02:49:58.849Z,98.70
2023-03-21T02:52:39.113Z,98.70
2023-03-21T02:55:15.592Z,98.70
2023-03-21T02:58:12.505Z,98.70
2023-03-21T03:00:47.530Z,98.60
2023-03-21T03:03:34.534Z,98.60
2023-03-21T03:06:14.727Z,98.60
2023-03-21T03:09:06.054Z,98.70
2023-03-21T03:11:37.701Z,98.80
2023-03-21T03:14:47.092Z,98.70
2023-03-21T03:17:39.430Z,98.70
2023-03-21T03:20:29.600Z,98.60
2023-03-21T03:23:10.511Z,98.60
2023-03-21T03:25:46.193Z,98.70
2023-03-21T03:28:21.415Z,98.60
2023-03-21T03:31:07.516Z,98.60
2023-03-21T03:33:46.914Z,98.70
2023-03-21T03:36:31.162Z,98.60
2023-03-21T03:39:08.977Z,98.60
2023-03-21T03:42:12.502Z,98.60
2023-03-21T03:44:39.232Z,98.70
2023-03-21T03:47:22.882Z,98.60
2023-03-21T03:50:09.838Z,98.60
2023-03-21T03:52:53.662Z,98.70
2023-03-21T03:55:28.210Z,98.80
2023-03-21T03:58:04.773Z,98.70
2023-03-21T04:00:35.398Z,98.80
2023-03-21T04:03:03.923Z,98.70
2023-03-21T04:05:32.559Z,98.70
2023-03-21T04:08:01.070Z,98.70
2023-03-21T04:10:37.143Z,98.60
2023-03-21T04:13:06.995Z,98.70
2023-03-21T04:15:46.627Z,98.80
2023-03-21T04:18:17.910Z,98.90
2023-03-21T04:20:48.566Z,99.10
2023-03-21T04:23:18.989Z,98.80
2023-03-21T04:25:56.276Z,98.80
2023-03-21T04:28:36.205Z,98.80
2023-03-21T04:31:33.924Z,98.80
2023-03-21T04:34:12.600Z,98.90
2023-03-21T04:36:46.314Z,98.80
2023-03-21T04:39:16.211Z,98.80
2023-03-21T04:41:48.406Z,98.80
2023-03-21T04:44:19.792Z,98.80
2023-03-21T04:46:48.497Z,98.90
2023-03-21T04:49:16.834Z,98.70
2023-03-21T04:51:46.239Z,98.80
2023-03-21T04:54:19.265Z,98.80
2023-03-21T04:56:47.585Z,98.80
2023-03-21T04:59:19.625Z,98.70
2023-03-21T05:01:48.070Z,99.20
2023-03-21T05:04:16.708Z,98.90
2023-03-21T05:06:45.913Z,98.90
2023-03-21T05:09:14.975Z,98.90
2023-03-21T05:11:44.278Z,98.90
2023-03-21T05:14:19.248Z,98.90
2023-03-21T05:16:53.418Z,98.90
2023-03-21T05:19:24.875Z,98.90
2023-03-21T05:21:54.100Z,98.90
2023-03-21T05:24:26.835Z,98.80
2023-03-21T05:26:56.238Z,98.90
2023-03-21T05:29:31.103Z,98.90
2023-03-21T05:32:03.394Z,99.00
2023-03-21T05:34:32.189Z,98.90
2023-03-21T05:37:01.457Z,98.90
2023-03-21T05:39:42.337Z,98.90
2023-03-21T05:42:18.508Z,98.90
2023-03-21T05:44:49.239Z,98.90
2023-03-21T05:47:20.221Z,98.90
2023-03-21T05:49:49.919Z,99.00
2023-03-21T05:52:18.954Z,98.90
2023-03-21T05:54:48.798Z,98.90
2023-03-21T05:57:19.192Z,99.00
2023-03-21T06:00:06.807Z,99.00
2023-03-21T06:02:43.678Z,99.10
2023-03-21T06:05:31.961Z,99.00
2023-03-21T06:08:00.477Z,99.00
2023-03-21T06:10:29.147Z,98.90
2023-03-21T06:12:57.538Z,99.00
2023-03-21T06:15:33.603Z,99.00
2023-03-21T06:18:16.702Z,99.00
2023-03-21T06:20:57.504Z,99.00
2023-03-21T06:23:26.062Z,99.00
2023-03-21T06:25:55.098Z,99.00
2023-03-21T06:28:28.216Z,99.00
2023-03-21T06:30:57.956Z,99.00
2023-03-21T06:33:28.355Z,99.00
2023-03-21T06:35:59.365Z,99.10
2023-03-21T06:38:28.000Z,99.20
2023-03-21T06:40:56.332Z,99.10
2023-03-21T06:43:26.977Z,99.20
2023-03-21T06:45:57.515Z,99.20
2023-03-21T06:48:26.413Z,99.30
2023-03-21T06:50:57.338Z,99.30
2023-03-21T06:53:28.433Z,99.40
2023-03-21T06:56:16.771Z,99.30
2023-03-21T06:58:47.045Z,99.40
2023-03-21T07:01:35.157Z,99.70
2023-03-21T07:04:08.008Z,99.50
2023-03-21T07:06:37.217Z,99.40
2023-03-21T07:09:06.749Z,99.40
2023-03-21T07:11:37.402Z,99.30
2023-03-21T07:14:07.586Z,99.40
2023-03-21T07:16:37.393Z,99.50
2023-03-21T07:19:06.113Z,99.30
2023-03-21T07:21:34.482Z,99.40
2023-03-21T07:24:02.921Z,99.30
2023-03-21T07:26:31.283Z,99.30
2023-03-21T07:29:00.623Z,99.30
2023-03-21T07:31:29.611Z,99.30
2023-03-21T07:33:59.483Z,99.40
2023-03-21T07:36:28.207Z,99.30
2023-03-21T07:38:56.658Z,99.40
2023-03-21T07:41:26.146Z,99.40
2023-03-21T07:43:54.611Z,99.30
2023-03-21T07:46:22.966Z,99.30
2023-03-21T07:48:51.560Z,99.40
2023-03-21T07:51:21.343Z,99.40
2023-03-21T07:53:49.699Z,99.40
2023-03-21T07:56:18.065Z,99.40
2023-03-21T07:58:46.476Z,99.40
2023-03-21T08:01:14.830Z,99.30
2023-03-21T08:03:43.478Z,99.40
2023-03-21T08:06:12.545Z,99.40
2023-03-21T08:08:42.372Z,99.60
2023-03-21T08:11:12.026Z,99.30
2023-03-21T08:13:40.989Z,99.50
2023-03-21T08:16:10.437Z,99.10
2023-03-21T08:18:38.775Z,99.10
2023-03-21T08:21:09.653Z,99.00
2023-03-21T08:23:38.100Z,99.00
2023-03-21T08:26:09.370Z,98.90
2023-03-21T08:28:39.395Z,98.80
2023-03-21T08:31:09.712Z,98.40
2023-03-21T08:33:38.504Z,98.40
2023-03-21T08:36:08.503Z,98.20
2023-03-21T08:38:37.050Z,98.60
2023-03-21T08:41:07.344Z,98.30
2023-03-21T08:43:35.739Z,98.30
2023-03-21T08:46:04.627Z,98.20
2023-03-21T08:48:33.039Z,98.10
2023-03-21T08:51:02.138Z,97.80
2023-03-21T08:53:30.514Z,97.80
2023-03-21T08:55:58.925Z,97.70
2023-03-21T08:58:28.814Z,97.70
2023-03-21T09:00:57.204Z,97.50
2023-03-21T09:03:27.436Z,97.30
2023-03-21T09:05:56.092Z,97.20
2023-03-21T09:08:24.784Z,97.10
2023-03-21T09:10:54.796Z,97.00
2023-03-21T09:13:23.566Z,97.00
2023-03-21T09:15:54.202Z,96.90
2023-03-21T09:18:42.585Z,96.50
2023-03-21T09:21:13.034Z,96.60
2023-03-21T09:23:41.945Z,96.60
2023-03-21T09:26:10.796Z,96.60
2023-03-21T09:28:39.321Z,96.60
2023-03-21T09:31:11.689Z,96.80
2023-03-21T09:33:41.470Z,96.50
2023-03-21T09:36:14.187Z,96.50
2023-03-21T09:38:43.075Z,96.20
2023-03-21T09:41:25.812Z,96.10
2023-03-21T09:44:08.230Z,96.40
2023-03-21T09:46:46.028Z,96.10
2023-03-21T09:49:22.277Z,96.30
2023-03-21T09:51:53.680Z,96.20
2023-03-21T09:54:28.048Z,96.20
2023-03-21T09:57:01.271Z,96.20
2023-03-21T09:59:38.173Z,96.20
2023-03-21T10:02:36.073Z,96.20
2023-03-21T10:05:14.290Z,96.20
2023-03-21T10:07:48.800Z,96.30
2023-03-21T10:10:21.625Z,96.10
2023-03-21T10:12:51.969Z,96.10
2023-03-21T10:15:23.849Z,95.90
2023-03-21T10:18:02.530Z,95.90
2023-03-21T10:20:33.389Z,95.70
2023-03-21T10:23:05.045Z,95.90
2023-03-21T10:25:38.364Z,95.80
2023-03-21T10:28:09.860Z,96.00
2023-03-21T10:30:42.375Z,96.10
2023-03-21T10:33:17.351Z,96.00
2023-03-21T10:35:51.521Z,95.70
2023-03-21T10:38:23.564Z,96.30
2023-03-21T10:40:52.538Z,95.90
2023-03-21T10:43:34.331Z,95.70
2023-03-21T10:46:10.189Z,95.70
2023-03-21T10:48:46.291Z,95.60
2023-03-21T10:51:20.837Z,95.70
2023-03-21T10:53:53.553Z,95.70
2023-03-21T10:56:27.736Z,95.80
2023-03-21T10:58:59.708Z,95.60
2023-03-21T11:01:35.383Z,95.60
2023-03-21T11:04:14.048Z,95.60
2023-03-21T11:06:44.785Z,95.20
2023-03-21T11:09:19.720Z,95.40
2023-03-21T11:11:54.333Z,95.20
2023-03-21T11:14:34.530Z,95.40
2023-03-21T11:17:03.055Z,95.40
2023-03-21T11:19:36.820Z,95.40
2023-03-21T11:22:08.616Z,95.30
2023-03-21T11:24:37.821Z,95.60
2023-03-21T11:27:09.218Z,95.50
2023-03-21T11:29:40.556Z,95.70
2023-03-21T11:32:14.407Z,95.70
2023-03-21T11:34:49.239Z,95.40
2023-03-21T11:37:28.354Z,95.30
2023-03-21T11:40:09.148Z,95.70
2023-03-21T11:42:44.917Z,95.70
2023-03-21T11:45:18.233Z,95.60
2023-03-21T11:47:47.907Z,95.30
2023-03-21T11:50:22.486Z,95.30
2023-03-21T11:53:21.639Z,95.40
2023-03-21T11:56:11.685Z,95.40
2023-03-21T11:58:58.456Z,95.40
2023-03-21T12:01:35.537Z,95.20
2023-03-21T12:04:18.595Z,95.10
2023-03-21T12:06:55.388Z,95.30
2023-03-21T12:09:36.860Z,95.20
2023-03-21T12:12:33.031Z,95.00
2023-03-21T12:15:17.859Z,95.10
2023-03-21T12:17:57.497Z,95.10
2023-03-21T12:20:45.727Z,95.10
2023-03-21T12:23:46.781Z,95.20
2023-03-21T12:26:24.406Z,95.40
2023-03-21T12:29:09.150Z,95.00
2023-03-21T12:31:54.392Z,94.90
2023-03-21T12:34:47.105Z,95.00
2023-03-21T12:37:26.902Z,95.00
2023-03-21T12:40:09.818Z,95.20
2023-03-21T12:43:08.952Z,94.60
2023-03-21T12:45:47.383Z,94.70
2023-03-21T12:48:26.004Z,94.80
2023-03-21T12:50:57.233Z,94.50
2023-03-21T12:53:39.938Z,94.50
2023-03-21T12:56:16.925Z,94.40
2023-03-21T12:58:54.808Z,94.50
2023-03-21T13:01:24.338Z,94.50
2023-03-21T13:04:07.343Z,94.50
2023-03-21T13:06:39.047Z,94.50
2023-03-21T13:09:16.088Z,94.50
2023-03-21T13:11:47.292Z,94.30
2023-03-21T13:14:20.032Z,94.50
2023-03-21T13:16:56.064Z,94.30
2023-03-21T13:19:31.085Z,94.40
2023-03-21T13:22:08.878Z,94.30
2023-03-21T13:24:44.843Z,94.50
2023-03-21T13:27:27.564Z,94.30
2023-03-21T13:30:02.549Z,94.10
2023-03-21T13:32:35.989Z,94.40
2023-03-21T13:35:16.141Z,94.30
2023-03-21T13:37:51.960Z,94.00
2023-03-21T13:40:27.145Z,93.90
2023-03-21T13:43:03.416Z,93.80
2023-03-21T13:45:37.602Z,93.70
2023-03-21T13:48:14.550Z,93.70
2023-03-21T13:50:54.768Z,93.70
2023-03-21T13:53:27.651Z,93.90
2023-03-21T13:56:20.332Z,93.90
2023-03-21T13:58:57.371Z,93.80
2023-03-21T14:01:36.291Z,93.80
2023-03-21T14:04:13.814Z,94.10
2023-03-21T14:06:51.239Z,94.00
2023-03-21T14:09:28.992Z,93.80
2023-03-21T14:12:03.920Z,94.00
2023-03-21T14:14:41.855Z,94.10
2023-03-21T14:17:14.654Z,94.30
2023-03-21T14:19:43.122Z,94.40
2023-03-21T14:22:13.434Z,94.10
2023-03-21T14:24:42.031Z,94.60
2023-03-21T14:27:10.639Z,94.60
2023-03-21T14:29:41.853Z,94.40
2023-03-21T14:32:23.040Z,94.50
2023-03-21T14:34:51.576Z,94.80
2023-03-21T14:37:32.736Z,95.00
2023-03-21T14:40:03.234Z,95.60
2023-03-21T14:42:35.970Z,95.70
2023-03-21T14:45:20.997Z,96.00
2023-03-21T14:48:01.026Z,96.40
2023-03-21T14:50:39.259Z,96.30
2023-03-21T14:53:09.298Z,96.50
2023-03-21T14:55:44.225Z,96.40
2023-03-21T14:58:15.313Z,96.80
2023-03-21T15:00:45.345Z,97.20
2023-03-21T15:03:16.246Z,97.30
2023-03-21T15:05:46.790Z,97.30
2023-03-21T15:08:18.667Z,97.40
2023-03-21T15:11:06.318Z,97.70
2023-03-21T15:13:38.251Z,98.00
2023-03-21T15:16:09.659Z,98.00
2023-03-21T15:18:41.588Z,98.20
2023-03-21T15:21:13.745Z,98.30
2023-03-21T15:23:44.550Z,98.10
2023-03-21T15:26:17.691Z,98.20
2023-03-21T15:28:52.558Z,97.70
2023-03-21T15:31:25.194Z,97.50
2023-03-21T15:33:55.280Z,97.50
2023-03-21T15:36:27.129Z,97.80
2023-03-21T15:38:57.287Z,97.90
2023-03-21T15:41:30.498Z,97.80
2023-03-21T15:44:07.496Z,98.10
2023-03-21T15:46:43.211Z,98.30
2023-03-21T15:49:22.833Z,98.20
2023-03-21T15:51:57.122Z,98.20
2023-03-21T15:54:28.764Z,98.20
2023-03-21T15:57:01.323Z,98.30
2023-03-21T15:59:35.580Z,98.30
2023-03-21T16:02:07.316Z,98.90
2023-03-21T16:04:57.664Z,98.60
2023-03-21T16:07:26.945Z,98.90
2023-03-21T16:10:01.851Z,98.70
2023-03-21T16:12:30.451Z,99.00
2023-03-21T16:15:05.399Z,98.80
2023-03-21T16:17:39.543Z,98.80
2023-03-21T16:20:20.216Z,98.90
2023-03-21T16:22:49.054Z,99.20
2023-03-21T16:25:18.090Z,98.70
2023-03-21T16:27:48.236Z,98.60
2023-03-21T16:30:20.780Z,98.70
2023-03-21T16:32:51.073Z,98.90
2023-03-21T16:35:22.287Z,98.90
2023-03-21T16:37:52.038Z,98.90
2023-03-21T16:40:30.544Z,98.70
2023-03-21T16:42:58.968Z,99.00
2023-03-21T16:45:28.891Z,98.60
2023-03-21T16:47:59.318Z,99.00
2023-03-21T16:50:31.095Z,99.10
2023-03-21T16:53:00.004Z,99.20
2023-03-21T16:55:29.049Z,99.40
2023-03-21T16:57:57.694Z,99.20
2023-03-21T17:00:29.138Z,99.20
2023-03-21T17:03:02.252Z,99.20
2023-03-21T17:05:32.068Z,99.50
2023-03-21T17:08:02.374Z,99.20
2023-03-21T17:10:33.105Z,99.30
2023-03-21T17:13:01.504Z,99.40
2023-03-21T17:15:29.926Z,99.20
2023-03-21T17:21:04.148Z,99.20
2023-03-21T17:23:33.419Z,99.20
2023-03-21T17:26:02.296Z,99.20
2023-03-21T17:28:30.679Z,99.20
2023-03-21T17:30:59.220Z,99.20
2023-03-21T17:33:28.941Z,99.30
2023-03-21T17:35:57.607Z,99.40
2023-03-21T17:38:25.930Z,99.30
2023-03-21T17:40:54.292Z,99.20
2023-03-21T17:43:23.370Z,99.30
2023-03-21T17:45:52.372Z,99.40
2023-03-21T17:48:21.899Z,99.20
2023-03-21T17:50:51.703Z,99.30
2023-03-21T17:53:20.036Z,99.40
2023-03-21T17:55:48.360Z,99.40
2023-03-21T17:58:17.783Z,99.40
2023-03-21T18:00:46.925Z,99.30
2023-03-21T18:03:17.213Z,99.60
2023-03-21T18:05:46.917Z,99.20
2023-03-21T18:08:16.698Z,99.40
2023-03-21T18:10:45.178Z,99.40
2023-03-21T18:13:14.106Z,99.40
2023-03-21T18:15:44.187Z,99.70
2023-03-21T18:18:13.286Z,99.30
2023-03-21T18:20:51.684Z,99.50
2023-03-21T18:23:22.836Z,99.30
2023-03-21T18:25:52.692Z,99.40
2023-03-21T18:28:22.432Z,99.50
2023-03-21T18:33:41.348Z,99.50
2023-03-21T18:36:13.598Z,99.50
2023-03-21T18:38:43.822Z,99.60
2023-03-21T18:41:12.561Z,99.60
2023-03-21T18:44:05.852Z,99.50
2023-03-21T18:46:31.684Z,99.40
2023-03-21T18:49:19.899Z,99.40
2023-03-21T18:51:48.513Z,99.40
2023-03-21T18:54:18.222Z,99.40
2023-03-21T18:57:33.852Z,99.40
2023-03-21T18:59:40.307Z,99.40
2023-03-21T19:02:09.288Z,99.40
2023-03-21T19:04:38.346Z,99.40
2023-03-21T19:07:08.110Z,99.40
2023-03-21T19:10:01.432Z,99.50
2023-03-21T19:12:27.613Z,99.50
2023-03-21T19:14:56.057Z,99.30
2023-03-21T19:18:15.723Z,99.40
2023-03-21T19:20:14.499Z,99.40
2023-03-21T19:22:42.916Z,99.50
2023-03-21T19:25:13.589Z,99.30
2023-03-21T19:27:42.363Z,99.40
2023-03-21T19:30:15.736Z,99.40
2023-03-21T19:32:47.617Z,99.50
2023-03-21T19:35:16.288Z,99.30
2023-03-21T19:37:45.231Z,99.40
2023-03-21T19:40:15.636Z,99.50
2023-03-21T19:42:46.235Z,99.50
2023-03-21T19:45:14.679Z,99.40
2023-03-21T19:47:44.475Z,99.80
2023-03-21T19:50:47.777Z,99.40
2023-03-21T19:53:01.434Z,99.40
2023-03-21T19:55:31.485Z,99.40
2023-03-21T19:58:00.081Z,99.50
2023-03-21T20:00:28.454Z,99.80
2023-03-21T20:02:56.866Z,99.70
2023-03-21T20:05:25.838Z,99.70
2023-03-21T20:07:55.350Z,99.70
2023-03-21T20:10:27.349Z,99.90
2023-03-21T20:12:57.806Z,99.80
2023-03-21T20:15:29.748Z,99.70
2023-03-21T20:17:58.961Z,99.50
2023-03-21T20:20:27.403Z,99.60
2023-03-21T20:23:06.797Z,99.60
2023-03-21T20:25:36.427Z,99.70
2023-03-21T20:28:15.906Z,99.80
2023-03-21T20:30:50.849Z,99.70
2023-03-21T20:33:19.296Z,99.80
2023-03-21T20:38:37.704Z,99.70
2023-03-21T20:41:07.633Z,99.90
2023-03-21T20:44:20.842Z,99.90
2023-03-21T20:46:25.676Z,99.80
2023-03-21T20:48:54.642Z,99.80
2023-03-21T20:54:11.580Z,99.90
2023-03-21T20:56:40.028Z,99.90
2023-03-21T20:59:20.895Z,99.90
2023-03-21T21:01:52.277Z,99.90
2023-03-21T21:04:22.405Z,99.90
2023-03-21T21:06:51.547Z,99.90
2023-03-21T21:09:19.998Z,99.90
2023-03-21T21:14:39.298Z,99.90
2023-03-21T21:17:50.974Z,99.90
2023-03-21T21:19:58.028Z,99.90
2023-03-21T21:22:28.263Z,99.90
2023-03-21T21:24:57.073Z,99.90
2023-03-21T21:27:26.063Z,99.90
2023-03-21T21:29:57.550Z,99.90
2023-03-21T21:32:27.278Z,99.90
2023-03-21T21:34:56.211Z,99.90
2023-03-21T21:37:25.047Z,99.90
2023-03-21T21:39:54.075Z,99.90
2023-03-21T21:42:22.522Z,99.90
2023-03-21T21:44:50.895Z,99.90
2023-03-21T21:47:20.694Z,99.90
2023-03-21T21:49:49.188Z,99.90
2023-03-21T21:52:24.112Z,99.70
2023-03-21T21:54:52.572Z,99.70
2023-03-21T21:57:21.079Z,99.70
2023-03-21T21:59:53.905Z,99.70
2023-03-21T22:02:25.473Z,99.70
2023-03-21T22:04:56.839Z,99.80
2023-03-21T22:07:28.593Z,99.80
2023-03-21T22:09:57.654Z,99.80
2023-03-21T22:12:26.460Z,99.80
2023-03-21T22:14:54.807Z,99.80
2023-03-21T22:17:24.558Z,99.80
2023-03-21T22:20:05.118Z,99.90
2023-03-21T22:22:34.022Z,99.90
2023-03-21T22:25:02.555Z,99.90
2023-03-21T22:27:31.148Z,99.90
2023-03-21T22:30:04.493Z,99.90
2023-03-21T22:32:34.695Z,99.90
2023-03-21T22:35:03.404Z,99.90
2023-03-21T22:37:33.286Z,99.90
2023-03-21T22:40:02.116Z,99.90
2023-03-21T22:42:30.468Z,99.90
2023-03-21T22:44:58.825Z,99.90
2023-03-21T22:47:27.227Z,99.90
2023-03-21T22:49:56.993Z,99.90
2023-03-21T22:52:26.280Z,99.90
2023-03-21T22:54:54.766Z,99.90
2023-03-21T22:57:23.281Z,99.90
2023-03-21T22:59:51.745Z,99.90
2023-03-21T23:02:20.161Z,99.90
2023-03-21T23:04:50.983Z,99.90
2023-03-21T23:07:20.835Z,99.90
2023-03-21T23:09:49.353Z,99.90
2023-03-21T23:12:17.884Z,99.90
2023-03-21T23:14:46.315Z,99.90
2023-03-21T23:17:16.368Z,99.90
2023-03-21T23:19:44.928Z,99.90
2023-03-21T23:22:13.238Z,99.90
2023-03-21T23:24:43.005Z,99.90
2023-03-21T23:27:11.314Z,99.90
2023-03-21T23:29:39.725Z,99.90
2023-03-21T23:32:08.126Z,99.90
2023-03-21T23:34:36.794Z,99.90
2023-03-21T23:37:06.828Z,99.90
2023-03-21T23:39:35.465Z,99.90
2023-03-21T23:42:06.455Z,99.90
2023-03-21T23:44:35.075Z,99.90
2023-03-21T23:47:06.300Z,99.90
2023-03-21T23:49:41.243Z,99.90
2023-03-21T23:52:09.603Z,99.90
2023-03-21T23:54:38.273Z,99.90
2023-03-21T23:57:08.119Z,99.90
2023-03-21T23:59:36.442Z,99.90
